Time;durP1;ratioP1;P1;durP2;ratioP2;P2;SDS_P1;SDS_P2;PMS_P1;PMS_P2;Temp;Humidity;BMP_temperature;BMP_pressure;BME280_temperature;BME280_humidity;BME280_pressure;Samples;Min_cycle;Max_cycle;Signal;HPM_P1;HPM_P2
2021/12/13 00:00:36;;;;;;;1.35;1.35;;;;;;;;;;1827954;77;26280;-31
2021/12/13 00:03:05;;;;;;;1.20;1.20;;;;;;;;;;1832875;77;26716;-31
2021/12/13 00:05:37;;;;;;;1.27;1.27;;;;;;;;;;1818718;77;26778;-31
2021/12/13 00:08:06;;;;;;;1.50;1.50;;;;;;;;;;1823534;77;26390;-31
2021/12/13 00:10:35;;;;;;;1.35;1.35;;;;;;;;;;1809171;77;26759;-31
2021/12/13 00:13:07;;;;;;;1.15;1.15;;;;;;;;;;1820666;77;26296;-31
2021/12/13 00:15:36;;;;;;;1.30;1.30;;;;;;;;;;1829192;77;27127;-31
2021/12/13 00:18:05;;;;;;;1.40;1.37;;;;;;;;;;1829063;77;26358;-31
2021/12/13 00:20:37;;;;;;;1.50;1.30;;;;;;;;;;1833654;77;26339;-31
2021/12/13 00:23:04;;;;;;;3.08;1.30;;;;;;;;;;1830293;77;26375;-31
2021/12/13 00:25:31;;;;;;;3.12;1.20;;;;;;;;;;1820580;77;26277;-31
2021/12/13 00:28:00;;;;;;;1.32;1.20;;;;;;;;;;1820479;77;26362;-31
2021/12/13 00:30:29;;;;;;;1.35;1.32;;;;;;;;;;1819662;77;26739;-31
2021/12/13 00:33:16;;;;;;;1.30;1.30;;;;;;;;;;1838287;77;26709;-31
2021/12/13 00:35:45;;;;;;;1.25;1.25;;;;;;;;;;1834673;77;26755;-30
2021/12/13 00:38:13;;;;;;;1.20;1.05;;;;;;;;;;1829658;77;26940;-30
2021/12/13 00:40:42;;;;;;;1.10;1.10;;;;;;;;;;1831983;77;26288;-30
2021/12/13 00:43:14;;;;;;;1.37;1.37;;;;;;;;;;1828001;77;26296;-30
2021/12/13 00:45:42;;;;;;;1.20;1.20;;;;;;;;;;1824253;77;25361;-30
2021/12/13 00:48:10;;;;;;;1.40;1.30;;;;;;;;;;1825895;77;26363;-30
2021/12/13 00:50:45;;;;;;;1.10;1.10;;;;;;;;;;1828996;77;26361;-30
2021/12/13 00:53:13;;;;;;;1.20;1.17;;;;;;;;;;1831983;77;26370;-30
2021/12/13 00:55:42;;;;;;;1.52;1.17;;;;;;;;;;1815687;77;26283;-30
2021/12/13 00:58:14;;;;;;;1.10;1.10;;;;;;;;;;1828701;77;26342;-30
2021/12/13 01:00:43;;;;;;;1.12;1.12;;;;;;;;;;1826056;77;25319;-30
2021/12/13 01:03:12;;;;;;;1.10;1.10;;;;;;;;;;1839444;77;26277;-30
2021/12/13 01:05:57;;;;;;;1.10;1.10;;;;;;;;;;1836008;77;26365;-30
2021/12/13 01:08:32;;;;;;;0.98;0.98;;;;;;;;;;1826136;77;26375;-30
2021/12/13 01:11:13;;;;;;;0.90;0.90;;;;;;;;;;1823110;77;26438;-30
2021/12/13 01:13:54;;;;;;;1.00;1.00;;;;;;;;;;1835692;77;26906;-30
2021/12/13 01:16:52;;;;;;;1.00;1.00;;;;;;;;;;1844867;77;26754;-30
2021/12/13 01:22:24;;;;;;;1.07;1.07;;;;;;;;;;1837383;77;26691;-30
2021/12/13 01:25:03;;;;;;;1.00;1.00;;;;;;;;;;1833746;77;26269;-30
2021/12/13 01:27:09;;;;;;;0.82;0.82;;;;;;;;;;1835672;77;26367;-30
2021/12/13 01:29:37;;;;;;;1.10;1.10;;;;;;;;;;1823483;77;26307;-30
2021/12/13 01:32:06;;;;;;;0.90;0.90;;;;;;;;;;1832535;77;26334;-30
2021/12/13 01:34:35;;;;;;;0.85;0.85;;;;;;;;;;1833740;77;26299;-30
2021/12/13 01:37:16;;;;;;;1.00;1.00;;;;;;;;;;1835077;77;26769;-30
2021/12/13 01:39:45;;;;;;;1.15;1.10;;;;;;;;;;1841633;77;26284;-30
2021/12/13 01:42:14;;;;;;;1.32;1.05;;;;;;;;;;1825360;77;26342;-31
2021/12/13 01:44:43;;;;;;;0.90;0.90;;;;;;;;;;1833717;77;26299;-30
2021/12/13 01:47:12;;;;;;;1.07;1.07;;;;;;;;;;1837745;77;26232;-30
2021/12/13 01:49:40;;;;;;;0.90;0.90;;;;;;;;;;1846310;77;26339;-30
2021/12/13 01:52:15;;;;;;;1.00;1.00;;;;;;;;;;1827628;77;26361;-30
2021/12/13 01:54:43;;;;;;;0.90;0.90;;;;;;;;;;1824437;77;26791;-30
2021/12/13 01:59:54;;;;;;;1.00;1.00;;;;;;;;;;1810386;77;26326;-30
2021/12/13 02:02:30;;;;;;;0.90;0.90;;;;;;;;;;1798402;79;26328;-30
2021/12/13 02:04:59;;;;;;;0.88;0.88;;;;;;;;;;1801897;79;26342;-30
2021/12/13 02:07:28;;;;;;;0.80;0.80;;;;;;;;;;1804841;78;26235;-30
2021/12/13 02:09:56;;;;;;;0.90;0.90;;;;;;;;;;1803205;79;26314;-30
2021/12/13 02:12:25;;;;;;;0.90;0.90;;;;;;;;;;1802541;79;26283;-30
2021/12/13 02:17:41;;;;;;;0.85;0.85;;;;;;;;;;1799676;78;26625;-30
2021/12/13 02:20:10;;;;;;;0.80;0.80;;;;;;;;;;1805165;79;26283;-30
2021/12/13 02:22:39;;;;;;;0.80;0.80;;;;;;;;;;1788743;78;26374;-30
2021/12/13 02:25:08;;;;;;;0.75;0.75;;;;;;;;;;1782126;80;26235;-30
2021/12/13 02:27:37;;;;;;;0.90;0.90;;;;;;;;;;1775152;80;26334;-30
2021/12/13 02:30:11;;;;;;;0.78;0.78;;;;;;;;;;1785874;80;26403;-30
2021/12/13 02:32:40;;;;;;;0.82;0.82;;;;;;;;;;1780019;80;26272;-30
2021/12/13 02:35:08;;;;;;;0.70;0.70;;;;;;;;;;1788509;80;26698;-30
2021/12/13 02:37:36;;;;;;;0.90;0.90;;;;;;;;;;1784553;80;26731;-30
2021/12/13 02:40:04;;;;;;;1.25;0.85;;;;;;;;;;1790499;80;26286;-30
2021/12/13 02:42:32;;;;;;;0.80;0.80;;;;;;;;;;1792892;79;26286;-30
2021/12/13 02:45:03;;;;;;;0.72;0.72;;;;;;;;;;1788943;79;26235;-30
2021/12/13 02:47:34;;;;;;;0.80;0.80;;;;;;;;;;1791562;80;26824;-30
2021/12/13 02:50:03;;;;;;;0.70;0.70;;;;;;;;;;1789518;80;26248;-30
2021/12/13 02:52:31;;;;;;;0.70;0.70;;;;;;;;;;1791461;80;25620;-30
2021/12/13 02:54:59;;;;;;;0.70;0.70;;;;;;;;;;1788324;80;26422;-30
2021/12/13 02:57:31;;;;;;;0.70;0.70;;;;;;;;;;1790505;79;26302;-30
2021/12/13 03:00:00;;;;;;;0.72;0.72;;;;;;;;;;1797833;78;26327;-30
2021/12/13 03:02:31;;;;;;;0.80;0.80;;;;;;;;;;1784991;79;26318;-30
2021/12/13 03:05:01;;;;;;;0.78;0.78;;;;;;;;;;1791822;79;26388;-30
2021/12/13 03:07:35;;;;;;;0.82;0.82;;;;;;;;;;1790982;79;26296;-30
2021/12/13 03:10:04;;;;;;;0.80;0.80;;;;;;;;;;1802907;78;26226;-30
2021/12/13 03:12:31;;;;;;;0.68;0.68;;;;;;;;;;1784236;80;26801;-30
2021/12/13 03:15:00;;;;;;;1.80;0.70;;;;;;;;;;1785598;78;26309;-30
2021/12/13 03:17:29;;;;;;;0.62;0.62;;;;;;;;;;1806524;78;26285;-30
2021/12/13 03:20:14;;;;;;;0.70;0.70;;;;;;;;;;1812974;78;26322;-30
2021/12/13 03:22:49;;;;;;;0.70;0.70;;;;;;;;;;1810563;78;26362;-30
2021/12/13 03:25:24;;;;;;;0.80;0.80;;;;;;;;;;1791972;79;26868;-30
2021/12/13 03:28:09;;;;;;;0.65;0.65;;;;;;;;;;1792339;79;26752;-29
2021/12/13 03:30:38;;;;;;;0.80;0.80;;;;;;;;;;1789453;79;26296;-30
2021/12/13 03:33:07;;;;;;;0.80;0.80;;;;;;;;;;1787174;79;26260;-30
2021/12/13 03:35:38;;;;;;;0.60;0.60;;;;;;;;;;1782626;79;26235;-30
2021/12/13 03:38:19;;;;;;;0.60;0.60;;;;;;;;;;1783697;79;26300;-30
2021/12/13 03:40:50;;;;;;;0.80;0.80;;;;;;;;;;1781709;79;26737;-30
2021/12/13 03:43:18;;;;;;;0.70;0.70;;;;;;;;;;1787736;79;26265;-30
2021/12/13 03:45:50;;;;;;;0.60;0.60;;;;;;;;;;1783259;79;26373;-30
2021/12/13 03:48:19;;;;;;;0.60;0.60;;;;;;;;;;1789032;79;26645;-30
2021/12/13 03:50:48;;;;;;;0.70;0.70;;;;;;;;;;1799328;79;26774;-30
2021/12/13 03:53:20;;;;;;;0.70;0.70;;;;;;;;;;1798769;79;26352;-31
2021/12/13 03:55:48;;;;;;;0.60;0.60;;;;;;;;;;1806438;79;26276;-30
2021/12/13 03:58:17;;;;;;;0.50;0.50;;;;;;;;;;1792230;79;26277;-30
2021/12/13 04:00:46;;;;;;;0.70;0.70;;;;;;;;;;1792838;78;27843;-30
2021/12/13 04:03:15;;;;;;;0.70;0.70;;;;;;;;;;1779558;79;26276;-30
2021/12/13 04:05:43;;;;;;;0.80;0.80;;;;;;;;;;1783260;79;26861;-30
2021/12/13 04:08:11;;;;;;;0.57;0.57;;;;;;;;;;1781766;79;26405;-30
2021/12/13 04:10:43;;;;;;;0.62;0.62;;;;;;;;;;1786010;79;27616;-30
2021/12/13 04:13:14;;;;;;;0.60;0.60;;;;;;;;;;1780080;79;26680;-30
2021/12/13 04:16:09;;;;;;;0.60;0.60;;;;;;;;;;1782841;79;26389;-30
2021/12/13 04:19:06;;;;;;;0.60;0.60;;;;;;;;;;1783564;79;26318;-30
2021/12/13 04:21:10;;;;;;;0.62;0.62;;;;;;;;;;1786744;79;26468;-30
2021/12/13 04:23:39;;;;;;;0.60;0.60;;;;;;;;;;1787755;79;26272;-30
2021/12/13 04:26:08;;;;;;;0.70;0.70;;;;;;;;;;1785338;79;27486;-30
2021/12/13 04:28:36;;;;;;;0.70;0.70;;;;;;;;;;1788417;79;26685;-30
2021/12/13 04:31:08;;;;;;;0.60;0.60;;;;;;;;;;1791272;79;26270;-30
2021/12/13 04:33:37;;;;;;;0.60;0.60;;;;;;;;;;1782452;79;25712;-30
2021/12/13 04:36:05;;;;;;;0.70;0.70;;;;;;;;;;1791499;79;26397;-30
2021/12/13 04:38:34;;;;;;;0.60;0.60;;;;;;;;;;1797772;79;26830;-30
2021/12/13 04:41:03;;;;;;;0.65;0.65;;;;;;;;;;1794674;79;26783;-30
2021/12/13 04:43:32;;;;;;;0.62;0.62;;;;;;;;;;1798186;79;26780;-30
2021/12/13 04:46:01;;;;;;;1.05;0.80;;;;;;;;;;1789470;79;26232;-30
2021/12/13 04:48:30;;;;;;;0.75;0.57;;;;;;;;;;1783235;79;26383;-30
2021/12/13 04:51:14;;;;;;;0.50;0.50;;;;;;;;;;1780649;79;26381;-30
2021/12/13 04:53:44;;;;;;;0.57;0.57;;;;;;;;;;1789474;79;26346;-30
2021/12/13 04:56:13;;;;;;;1.95;0.80;;;;;;;;;;1790230;79;26334;-30
2021/12/13 04:58:41;;;;;;;0.70;0.70;;;;;;;;;;1782501;79;26528;-30
2021/12/13 05:01:11;;;;;;;0.90;0.90;;;;;;;;;;1787326;79;26755;-30
2021/12/13 05:03:40;;;;;;;0.60;0.60;;;;;;;;;;1799102;79;26436;-30
2021/12/13 05:06:08;;;;;;;0.70;0.70;;;;;;;;;;1819213;78;26339;-30
2021/12/13 05:08:37;;;;;;;0.70;0.70;;;;;;;;;;1818475;77;26253;-30
2021/12/13 05:11:06;;;;;;;0.70;0.70;;;;;;;;;;1799132;79;26221;-30
2021/12/13 05:13:35;;;;;;;0.70;0.70;;;;;;;;;;1838034;76;26262;-30
2021/12/13 05:16:09;;;;;;;0.60;0.60;;;;;;;;;;1850134;75;26280;-30
2021/12/13 05:18:37;;;;;;;0.70;0.70;;;;;;;;;;1848789;76;26285;-30
2021/12/13 05:21:06;;;;;;;0.70;0.70;;;;;;;;;;1864982;76;26251;-30
2021/12/13 05:23:34;;;;;;;0.57;0.57;;;;;;;;;;1840494;76;26657;-30
2021/12/13 05:26:03;;;;;;;3.20;0.70;;;;;;;;;;1857993;77;26786;-30
2021/12/13 05:28:32;;;;;;;0.70;0.70;;;;;;;;;;1863878;75;26280;-30
2021/12/13 05:31:01;;;;;;;0.60;0.60;;;;;;;;;;1806786;77;26283;-30
2021/12/13 05:33:29;;;;;;;1.22;0.62;;;;;;;;;;1847105;76;26301;-30
2021/12/13 05:35:58;;;;;;;1.10;0.70;;;;;;;;;;1844002;76;26258;-30
2021/12/13 05:38:27;;;;;;;2.67;0.80;;;;;;;;;;1854812;77;26248;-30
2021/12/13 05:40:55;;;;;;;1.70;0.70;;;;;;;;;;1860975;76;26271;-30
2021/12/13 05:43:27;;;;;;;1.37;0.60;;;;;;;;;;1847173;77;26397;-30
2021/12/13 05:45:55;;;;;;;1.82;0.80;;;;;;;;;;1837418;77;26304;-30
2021/12/13 05:48:25;;;;;;;1.07;0.80;;;;;;;;;;1852189;76;26223;-30
2021/12/13 05:50:53;;;;;;;0.80;0.80;;;;;;;;;;1845097;76;26666;-30
2021/12/13 05:53:25;;;;;;;1.02;0.70;;;;;;;;;;1838610;76;26820;-30
2021/12/13 05:55:57;;;;;;;1.02;0.65;;;;;;;;;;1845695;77;26830;-30
2021/12/13 05:58:42;;;;;;;0.60;0.60;;;;;;;;;;1852083;76;25749;-30
2021/12/13 06:01:12;;;;;;;3.58;0.82;;;;;;;;;;1844257;77;26332;-30
2021/12/13 06:03:41;;;;;;;0.70;0.70;;;;;;;;;;1873757;76;26313;-30
2021/12/13 06:06:12;;;;;;;1.12;0.70;;;;;;;;;;1868440;76;26743;-30
2021/12/13 06:08:41;;;;;;;0.80;0.70;;;;;;;;;;1879099;76;26303;-30
2021/12/13 06:11:11;;;;;;;0.75;0.75;;;;;;;;;;1866339;76;26821;-30
2021/12/13 06:13:46;;;;;;;1.07;0.72;;;;;;;;;;1876233;76;26614;-30
2021/12/13 06:16:15;;;;;;;0.70;0.70;;;;;;;;;;1870119;76;26319;-30
2021/12/13 06:18:44;;;;;;;0.60;0.60;;;;;;;;;;1864378;76;26342;-30
2021/12/13 06:21:25;;;;;;;1.02;0.60;;;;;;;;;;1888098;76;26258;-30
2021/12/13 06:23:52;;;;;;;0.62;0.62;;;;;;;;;;1866630;76;26352;-30
2021/12/13 06:26:21;;;;;;;1.10;0.70;;;;;;;;;;1871006;76;26265;-30
2021/12/13 06:28:50;;;;;;;0.60;0.60;;;;;;;;;;1879690;74;26831;-30
2021/12/13 06:31:19;;;;;;;0.60;0.60;;;;;;;;;;1879937;76;26811;-30
2021/12/13 06:33:51;;;;;;;0.88;0.88;;;;;;;;;;1859400;76;26314;-30
2021/12/13 06:36:28;;;;;;;0.80;0.80;;;;;;;;;;1865994;76;26286;-30
2021/12/13 06:38:57;;;;;;;0.60;0.60;;;;;;;;;;1867586;76;26331;-31
2021/12/13 06:41:29;;;;;;;0.60;0.60;;;;;;;;;;1870676;76;26291;-30
2021/12/13 06:43:58;;;;;;;2.75;0.65;;;;;;;;;;1833829;77;26280;-30
2021/12/13 06:46:27;;;;;;;0.70;0.70;;;;;;;;;;1837901;77;26339;-30
2021/12/13 06:48:59;;;;;;;0.60;0.60;;;;;;;;;;1798934;78;26319;-30
2021/12/13 06:51:43;;;;;;;0.60;0.60;;;;;;;;;;1843565;76;26926;-30
2021/12/13 06:54:12;;;;;;;1.55;0.90;;;;;;;;;;1811639;78;26803;-30
2021/12/13 06:56:41;;;;;;;0.90;0.70;;;;;;;;;;1802531;78;26297;-30
2021/12/13 06:59:09;;;;;;;0.60;0.60;;;;;;;;;;1831729;77;26290;-30
2021/12/13 07:01:38;;;;;;;0.70;0.70;;;;;;;;;;1803684;79;26304;-30
2021/12/13 07:04:07;;;;;;;1.15;0.90;;;;;;;;;;1860097;76;26290;-30
2021/12/13 07:06:34;;;;;;;0.80;0.80;;;;;;;;;;1857529;77;26461;-30
2021/12/13 07:09:03;;;;;;;2.02;1.00;;;;;;;;;;1860570;77;26194;-32
2021/12/13 07:11:41;;;;;;;1.52;1.10;;;;;;;;;;1857051;76;26744;-32
2021/12/13 07:14:13;;;;;;;1.00;1.00;;;;;;;;;;1863089;76;26694;-32
2021/12/13 07:16:39;;;;;;;1.85;1.10;;;;;;;;;;1855902;76;26364;-33
2021/12/13 07:19:18;;;;;;;1.72;1.15;;;;;;;;;;1866510;76;26265;-33
2021/12/13 07:21:44;;;;;;;1.37;1.10;;;;;;;;;;1863088;76;26262;-33
2021/12/13 07:24:13;;;;;;;1.15;1.10;;;;;;;;;;1860317;77;27340;-33
2021/12/13 07:26:49;;;;;;;1.75;1.00;;;;;;;;;;1861825;76;26718;-33
2021/12/13 07:29:27;;;;;;;1.87;1.07;;;;;;;;;;1859175;76;26309;-33
2021/12/13 07:32:02;;;;;;;1.82;1.17;;;;;;;;;;1858276;76;26198;-32
2021/12/13 07:34:29;;;;;;;2.45;1.40;;;;;;;;;;1865616;75;27345;-33
2021/12/13 07:36:58;;;;;;;1.35;1.22;;;;;;;;;;1857935;76;26268;-33
2021/12/13 07:39:27;;;;;;;1.50;1.25;;;;;;;;;;1850400;77;26302;-33
2021/12/13 07:41:56;;;;;;;1.52;1.30;;;;;;;;;;1859980;77;27364;-32
2021/12/13 07:44:27;;;;;;;1.60;1.50;;;;;;;;;;1864217;76;26301;-33
2021/12/13 07:47:06;;;;;;;3.02;1.62;;;;;;;;;;1856029;76;26327;-30
2021/12/13 07:49:34;;;;;;;7.67;1.80;;;;;;;;;;1842415;76;28655;-32
2021/12/13 07:52:03;;;;;;;3.12;1.57;;;;;;;;;;1861147;77;26878;-32
2021/12/13 07:54:32;;;;;;;4.50;1.35;;;;;;;;;;1853438;76;26810;-32
2021/12/13 07:57:01;;;;;;;2.52;1.62;;;;;;;;;;1834485;76;28697;-32
2021/12/13 07:59:30;;;;;;;4.22;1.50;;;;;;;;;;1844224;75;26543;-32
2021/12/13 08:02:07;;;;;;;2.55;1.70;;;;;;;;;;1843570;74;28228;-32
2021/12/13 08:04:35;;;;;;;2.33;1.35;;;;;;;;;;1875909;75;26297;-32
2021/12/13 08:07:10;;;;;;;1.40;1.30;;;;;;;;;;1866909;74;26438;-33
2021/12/13 08:09:44;;;;;;;1.40;1.30;;;;;;;;;;1880328;75;26291;-33
2021/12/13 08:12:23;;;;;;;1.22;1.10;;;;;;;;;;1876674;75;26280;-33
2021/12/13 08:14:52;;;;;;;1.75;1.30;;;;;;;;;;1892442;75;26284;-32
2021/12/13 08:17:21;;;;;;;1.95;1.35;;;;;;;;;;1895564;74;26644;-32
2021/12/13 08:19:59;;;;;;;1.45;1.20;;;;;;;;;;1876257;75;26263;-31
2021/12/13 08:22:28;;;;;;;2.02;1.05;;;;;;;;;;1889684;75;26202;-31
2021/12/13 08:24:57;;;;;;;1.87;1.40;;;;;;;;;;1888210;75;26760;-31
2021/12/13 08:27:29;;;;;;;1.10;1.10;;;;;;;;;;1892945;74;26848;-31
2021/12/13 08:30:07;;;;;;;1.37;1.27;;;;;;;;;;1882339;75;26280;-32
2021/12/13 08:32:35;;;;;;;1.80;1.00;;;;;;;;;;1884018;75;26257;-31
2021/12/13 08:35:03;;;;;;;1.15;1.15;;;;;;;;;;1883923;74;26307;-31
2021/12/13 08:37:32;;;;;;;1.10;1.10;;;;;;;;;;1893333;75;26273;-31
2021/12/13 08:40:02;;;;;;;1.32;1.22;;;;;;;;;;1890220;75;26732;-32
2021/12/13 08:42:31;;;;;;;1.00;1.00;;;;;;;;;;1893659;75;26312;-30
2021/12/13 08:45:03;;;;;;;0.95;0.95;;;;;;;;;;1892928;75;26259;-31
2021/12/13 08:47:36;;;;;;;1.20;1.10;;;;;;;;;;1890053;75;26299;-32
2021/12/13 08:50:08;;;;;;;1.10;1.10;;;;;;;;;;1887786;75;26277;-30
2021/12/13 08:52:37;;;;;;;1.32;1.10;;;;;;;;;;1888867;75;28485;-33
2021/12/13 08:55:24;;;;;;;1.15;1.15;;;;;;;;;;1883030;75;26205;-33
2021/12/13 08:57:59;;;;;;;1.10;1.10;;;;;;;;;;1888836;75;26563;-32
2021/12/13 09:00:35;;;;;;;1.15;1.10;;;;;;;;;;1887904;75;26807;-33
2021/12/13 09:03:05;;;;;;;1.17;1.00;;;;;;;;;;1874205;75;26313;-33
2021/12/13 09:05:34;;;;;;;1.00;1.00;;;;;;;;;;1844337;77;26272;-33
2021/12/13 09:08:06;;;;;;;1.10;1.10;;;;;;;;;;1846673;76;26301;-33
2021/12/13 09:10:41;;;;;;;1.47;0.90;;;;;;;;;;1855530;76;26282;-33
2021/12/13 09:13:08;;;;;;;3.08;0.98;;;;;;;;;;1856874;76;26694;-32
2021/12/13 09:15:36;;;;;;;1.17;1.00;;;;;;;;;;1842354;76;35298;-31
2021/12/13 09:18:05;;;;;;;0.90;0.90;;;;;;;;;;1854681;77;26242;-30
2021/12/13 09:20:34;;;;;;;2.80;0.98;;;;;;;;;;1860470;75;26603;-34
2021/12/13 09:23:09;;;;;;;1.60;0.98;;;;;;;;;;1855436;76;26364;-47
2021/12/13 09:25:40;;;;;;;1.85;0.90;;;;;;;;;;1861567;76;26246;-48
2021/12/13 09:28:29;;;;;;;0.93;0.88;;;;;;;;;;1857527;76;26336;-46
2021/12/13 09:30:58;;;;;;;1.10;1.10;;;;;;;;;;1864420;76;26273;-47
2021/12/13 09:33:30;;;;;;;0.80;0.80;;;;;;;;;;1847117;77;26751;-49
2021/12/13 09:36:07;;;;;;;1.07;0.90;;;;;;;;;;1859171;76;26278;-47
2021/12/13 09:38:39;;;;;;;0.90;0.90;;;;;;;;;;1859443;76;26705;-48
2021/12/13 09:41:27;;;;;;;1.77;0.90;;;;;;;;;;1860495;77;26249;-46
2021/12/13 09:43:56;;;;;;;0.98;0.98;;;;;;;;;;1864361;76;25676;-47
2021/12/13 09:46:41;;;;;;;2.05;0.90;;;;;;;;;;1859232;76;26304;-49
2021/12/13 09:49:14;;;;;;;0.88;0.88;;;;;;;;;;1862293;77;26716;-48
2021/12/13 09:51:45;;;;;;;0.80;0.80;;;;;;;;;;1863743;77;26292;-48
2021/12/13 09:54:14;;;;;;;2.05;0.80;;;;;;;;;;1857553;77;26274;-46
2021/12/13 09:56:49;;;;;;;0.98;0.98;;;;;;;;;;1861078;75;26198;-38
2021/12/13 09:59:16;;;;;;;0.82;0.82;;;;;;;;;;1855383;76;26743;-44
2021/12/13 10:01:44;;;;;;;0.80;0.80;;;;;;;;;;1861959;76;26665;-42
2021/12/13 10:04:13;;;;;;;0.85;0.85;;;;;;;;;;1870016;76;26370;-42
2021/12/13 10:06:42;;;;;;;1.00;1.00;;;;;;;;;;1879478;76;26228;-43
2021/12/13 10:09:21;;;;;;;0.72;0.72;;;;;;;;;;1885154;76;26701;-43
2021/12/13 10:11:49;;;;;;;0.80;0.80;;;;;;;;;;1878916;76;26347;-41
2021/12/13 10:14:18;;;;;;;0.70;0.70;;;;;;;;;;1880358;76;26961;-44
2021/12/13 10:16:47;;;;;;;0.80;0.80;;;;;;;;;;1881848;76;26707;-43
2021/12/13 10:19:16;;;;;;;1.05;0.88;;;;;;;;;;1871827;76;26755;-39
2021/12/13 10:21:45;;;;;;;0.93;0.93;;;;;;;;;;1869797;76;26217;-42
2021/12/13 10:24:14;;;;;;;1.27;0.80;;;;;;;;;;1867715;74;26322;-43
2021/12/13 10:26:42;;;;;;;0.78;0.78;;;;;;;;;;1885358;76;26295;-42
2021/12/13 10:29:11;;;;;;;2.27;0.70;;;;;;;;;;1872962;76;26654;-40
2021/12/13 10:31:45;;;;;;;0.90;0.90;;;;;;;;;;1889792;76;27322;-47
2021/12/13 10:34:13;;;;;;;0.78;0.78;;;;;;;;;;1868728;76;26290;-39
2021/12/13 10:36:42;;;;;;;0.70;0.70;;;;;;;;;;1866142;74;26380;-40
2021/12/13 10:39:11;;;;;;;0.85;0.80;;;;;;;;;;1870611;76;26665;-42
2021/12/13 10:41:40;;;;;;;0.80;0.80;;;;;;;;;;1887911;76;26197;-42
2021/12/13 10:44:09;;;;;;;0.80;0.80;;;;;;;;;;1880967;76;28223;-40
2021/12/13 10:46:38;;;;;;;4.15;0.85;;;;;;;;;;1881563;75;26360;-38
2021/12/13 10:49:09;;;;;;;0.80;0.80;;;;;;;;;;1876942;74;26333;-41
2021/12/13 10:51:41;;;;;;;0.70;0.70;;;;;;;;;;1879613;76;26808;-42
2021/12/13 10:54:13;;;;;;;1.30;0.90;;;;;;;;;;1860312;74;39118;-43
2021/12/13 10:56:42;;;;;;;0.70;0.70;;;;;;;;;;1885044;76;26675;-41
2021/12/13 10:59:11;;;;;;;0.90;0.90;;;;;;;;;;1874832;76;26332;-41
2021/12/13 11:01:40;;;;;;;0.75;0.75;;;;;;;;;;1881853;74;26253;-39
2021/12/13 11:04:09;;;;;;;1.12;0.80;;;;;;;;;;1881922;74;26078;-41
2021/12/13 11:06:37;;;;;;;1.30;0.80;;;;;;;;;;1882044;75;26273;-40
2021/12/13 11:09:06;;;;;;;0.70;0.70;;;;;;;;;;1888889;75;26205;-41
2021/12/13 11:11:35;;;;;;;0.80;0.80;;;;;;;;;;1890296;75;26300;-46
2021/12/13 11:14:04;;;;;;;1.22;1.00;;;;;;;;;;1884483;75;26260;-45
2021/12/13 11:16:34;;;;;;;1.00;1.00;;;;;;;;;;1888486;75;26280;-46
2021/12/13 11:19:03;;;;;;;3.25;1.65;;;;;;;;;;1891932;75;26224;-42
2021/12/13 11:21:32;;;;;;;1.20;1.10;;;;;;;;;;1889953;75;26634;-46
2021/12/13 11:24:00;;;;;;;3.80;1.40;;;;;;;;;;1894111;75;27211;-45
2021/12/13 11:26:29;;;;;;;3.10;1.25;;;;;;;;;;1894445;75;26625;-44
2021/12/13 11:28:57;;;;;;;1.52;1.25;;;;;;;;;;1878721;74;26894;-44
2021/12/13 11:31:32;;;;;;;2.12;1.27;;;;;;;;;;1892666;74;26863;-44
2021/12/13 11:34:01;;;;;;;2.42;1.32;;;;;;;;;;1880296;75;23813;-42
2021/12/13 11:36:47;;;;;;;2.10;1.20;;;;;;;;;;1892225;75;26355;-44
2021/12/13 11:39:21;;;;;;;1.62;1.27;;;;;;;;;;1890202;75;26682;-40
2021/12/13 11:42:09;;;;;;;1.82;1.22;;;;;;;;;;1885804;75;26249;-42
2021/12/13 11:44:40;;;;;;;2.98;1.50;;;;;;;;;;1885521;75;26338;-41
2021/12/13 11:47:25;;;;;;;3.85;1.42;;;;;;;;;;1822798;75;26277;-49
2021/12/13 11:49:56;;;;;;;8.28;1.42;;;;;;;;;;1891782;75;27321;-38
2021/12/13 11:52:40;;;;;;;1.52;1.30;;;;;;;;;;1888677;75;26249;-39
2021/12/13 11:55:09;;;;;;;3.67;1.50;;;;;;;;;;1820943;77;26801;-44
2021/12/13 11:57:55;;;;;;;1.40;1.30;;;;;;;;;;1873297;75;26266;-45
2021/12/13 12:00:24;;;;;;;1.17;1.10;;;;;;;;;;1890550;74;26717;-45
2021/12/13 12:02:53;;;;;;;1.95;1.07;;;;;;;;;;1884100;74;26209;-40
2021/12/13 12:05:38;;;;;;;1.75;1.50;;;;;;;;;;1855530;77;26368;-45
2021/12/13 12:08:19;;;;;;;1.55;1.10;;;;;;;;;;1857998;77;26242;-42
2021/12/13 12:10:54;;;;;;;2.77;1.35;;;;;;;;;;1860723;75;26595;-42
2021/12/13 12:13:32;;;;;;;4.08;1.30;;;;;;;;;;1857138;77;26319;-45
2021/12/13 12:16:02;;;;;;;1.30;1.20;;;;;;;;;;1858465;75;26269;-44
2021/12/13 12:18:31;;;;;;;1.35;1.10;;;;;;;;;;1854416;76;26285;-48
2021/12/13 12:21:16;;;;;;;2.35;1.10;;;;;;;;;;1860934;77;26750;-54
2021/12/13 12:23:47;;;;;;;2.90;1.10;;;;;;;;;;1861353;76;26237;-43
2021/12/13 12:26:14;;;;;;;3.37;1.00;;;;;;;;;;1856368;75;26338;-44
2021/12/13 12:28:43;;;;;;;1.80;1.07;;;;;;;;;;1848160;76;26322;-40
2021/12/13 12:31:11;;;;;;;2.10;0.90;;;;;;;;;;1851321;76;26316;-41
2021/12/13 12:33:40;;;;;;;1.77;0.98;;;;;;;;;;1854279;75;26228;-41
2021/12/13 12:36:17;;;;;;;1.75;1.20;;;;;;;;;;1860730;76;26715;-48
2021/12/13 12:39:04;;;;;;;3.58;1.10;;;;;;;;;;1856536;77;26304;-50
2021/12/13 12:41:50;;;;;;;2.52;1.10;;;;;;;;;;1852315;76;28699;-42
2021/12/13 12:44:22;;;;;;;2.00;1.00;;;;;;;;;;1853819;76;26753;-47
2021/12/13 12:46:49;;;;;;;1.02;0.93;;;;;;;;;;1856704;76;26342;-43
2021/12/13 12:49:18;;;;;;;1.00;1.00;;;;;;;;;;1852133;76;26289;-43
2021/12/13 12:51:46;;;;;;;0.90;0.90;;;;;;;;;;1860035;77;26335;-45
2021/12/13 12:54:16;;;;;;;1.25;1.15;;;;;;;;;;1861593;76;26756;-44
2021/12/13 12:56:48;;;;;;;0.90;0.90;;;;;;;;;;1863847;76;26313;-42
2021/12/13 12:59:16;;;;;;;2.87;0.90;;;;;;;;;;1858477;77;26250;-42
2021/12/13 13:01:48;;;;;;;1.55;0.90;;;;;;;;;;1859212;76;26341;-42
2021/12/13 13:04:17;;;;;;;1.52;1.00;;;;;;;;;;1863884;76;26757;-39
2021/12/13 13:06:55;;;;;;;1.00;1.00;;;;;;;;;;1859739;77;26273;-45
2021/12/13 13:09:23;;;;;;;1.90;0.90;;;;;;;;;;1857412;76;26223;-47
2021/12/13 13:11:52;;;;;;;0.98;0.98;;;;;;;;;;1858416;76;26736;-50
2021/12/13 13:14:22;;;;;;;0.80;0.80;;;;;;;;;;1861294;76;26258;-43
2021/12/13 13:16:51;;;;;;;0.93;0.93;;;;;;;;;;1861883;77;26274;-40
2021/12/13 13:19:24;;;;;;;0.98;0.80;;;;;;;;;;1862955;76;26258;-40
2021/12/13 13:21:52;;;;;;;1.17;0.80;;;;;;;;;;1851245;76;26289;-43
2021/12/13 13:24:19;;;;;;;0.80;0.80;;;;;;;;;;1860602;76;26776;-42
2021/12/13 13:26:47;;;;;;;0.70;0.70;;;;;;;;;;1859822;75;26303;-47
2021/12/13 13:29:17;;;;;;;0.80;0.80;;;;;;;;;;1856576;77;26716;-47
2021/12/13 13:31:53;;;;;;;0.82;0.82;;;;;;;;;;1859756;76;26515;-39
2021/12/13 13:34:25;;;;;;;0.70;0.70;;;;;;;;;;1862985;76;26809;-42
2021/12/13 13:36:54;;;;;;;0.90;0.90;;;;;;;;;;1859643;77;26710;-40
2021/12/13 13:39:28;;;;;;;0.80;0.80;;;;;;;;;;1862538;76;26316;-44
2021/12/13 13:42:00;;;;;;;1.55;0.93;;;;;;;;;;1853354;76;26301;-49
2021/12/13 13:44:28;;;;;;;0.70;0.70;;;;;;;;;;1848633;76;26328;-47
2021/12/13 13:46:59;;;;;;;0.80;0.80;;;;;;;;;;1858485;76;26308;-46
2021/12/13 13:49:29;;;;;;;0.90;0.90;;;;;;;;;;1860250;77;26221;-45
2021/12/13 13:51:56;;;;;;;0.90;0.90;;;;;;;;;;1864836;77;25675;-43
2021/12/13 13:54:25;;;;;;;0.80;0.80;;;;;;;;;;1856308;76;26316;-41
2021/12/13 13:56:52;;;;;;;0.68;0.68;;;;;;;;;;1856350;76;26285;-43
2021/12/13 13:59:23;;;;;;;0.70;0.70;;;;;;;;;;1850391;76;26265;-46
2021/12/13 14:01:57;;;;;;;0.95;0.85;;;;;;;;;;1848533;77;28153;-44
2021/12/13 14:04:26;;;;;;;0.60;0.60;;;;;;;;;;1863933;76;26842;-46
2021/12/13 14:06:58;;;;;;;0.60;0.60;;;;;;;;;;1859558;77;26221;-40
2021/12/13 14:09:27;;;;;;;0.70;0.70;;;;;;;;;;1849092;76;26304;-40
2021/12/13 14:11:59;;;;;;;0.90;0.78;;;;;;;;;;1856471;77;26277;-40
2021/12/13 14:14:27;;;;;;;1.05;0.50;;;;;;;;;;1855733;76;26199;-41
2021/12/13 14:16:56;;;;;;;0.80;0.80;;;;;;;;;;1850503;75;26297;-43
2021/12/13 14:19:33;;;;;;;4.67;0.93;;;;;;;;;;1851717;76;26308;-39
2021/12/13 14:22:00;;;;;;;4.10;0.75;;;;;;;;;;1859319;76;26636;-44
2021/12/13 14:24:32;;;;;;;1.95;0.95;;;;;;;;;;1862031;76;26344;-42
2021/12/13 14:27:19;;;;;;;0.70;0.70;;;;;;;;;;1857383;75;26734;-40
2021/12/13 14:29:48;;;;;;;2.92;0.90;;;;;;;;;;1851125;75;26278;-39
2021/12/13 14:32:15;;;;;;;1.75;0.72;;;;;;;;;;1855993;75;26791;-39
2021/12/13 14:34:44;;;;;;;1.12;0.80;;;;;;;;;;1853575;75;26265;-39
2021/12/13 14:37:13;;;;;;;6.35;0.90;;;;;;;;;;1857879;77;26207;-39
2021/12/13 14:39:46;;;;;;;0.70;0.70;;;;;;;;;;1857258;76;26831;-40
2021/12/13 14:42:18;;;;;;;2.87;0.80;;;;;;;;;;1862437;75;26589;-40
2021/12/13 14:44:50;;;;;;;0.93;0.75;;;;;;;;;;1861301;77;26701;-39
2021/12/13 14:47:18;;;;;;;0.78;0.78;;;;;;;;;;1855737;77;26797;-39
2021/12/13 14:49:47;;;;;;;0.62;0.62;;;;;;;;;;1849991;76;26738;-41
2021/12/13 14:52:16;;;;;;;0.60;0.60;;;;;;;;;;1853184;75;26802;-40
2021/12/13 14:54:45;;;;;;;1.85;0.72;;;;;;;;;;1861601;77;26257;-40
2021/12/13 14:57:14;;;;;;;0.90;0.90;;;;;;;;;;1854157;75;26327;-41
2021/12/13 14:59:43;;;;;;;0.60;0.60;;;;;;;;;;1852581;75;26714;-40
2021/12/13 15:02:11;;;;;;;0.60;0.60;;;;;;;;;;1851980;77;26273;-39
2021/12/13 15:04:40;;;;;;;0.62;0.62;;;;;;;;;;1852718;76;26264;-42
2021/12/13 15:07:12;;;;;;;0.62;0.62;;;;;;;;;;1853957;77;26024;-39
2021/12/13 15:09:41;;;;;;;0.70;0.70;;;;;;;;;;1854046;77;26323;-40
2021/12/13 15:12:10;;;;;;;0.60;0.60;;;;;;;;;;1859518;76;26308;-40
2021/12/13 15:14:39;;;;;;;0.60;0.60;;;;;;;;;;1845617;75;26253;-41